createdAt,value
2019-03-28T00:00:23.824Z,23.57
2019-03-28T00:02:51.052Z,21.47
2019-03-28T00:05:18.602Z,23.17
2019-03-28T00:07:45.842Z,29.07
2019-03-28T00:10:13.074Z,22.83
2019-03-28T00:12:40.371Z,26.20
2019-03-28T00:15:08.280Z,26.27
2019-03-28T00:17:35.783Z,26.70
2019-03-28T00:20:04.212Z,26.23
2019-03-28T00:22:38.878Z,31.50
2019-03-28T00:25:19.743Z,28.27
2019-03-28T00:27:46.970Z,26.17
2019-03-28T00:30:14.928Z,22.37
2019-03-28T00:32:42.169Z,24.30
2019-03-28T00:35:09.788Z,25.37
2019-03-28T00:37:37.007Z,25.73
2019-03-28T00:40:06.086Z,22.80
2019-03-28T00:42:33.595Z,25.13
2019-03-28T00:45:02.102Z,23.93
2019-03-28T00:47:29.627Z,27.63
2019-03-28T00:49:56.870Z,28.37
2019-03-28T00:52:24.097Z,26.20
2019-03-28T00:54:51.337Z,31.53
2019-03-28T00:57:19.236Z,28.00
2019-03-28T00:59:46.551Z,25.03
2019-03-28T01:02:13.762Z,26.93
2019-03-28T01:04:41.026Z,26.43
2019-03-28T01:07:08.243Z,26.30
2019-03-28T01:09:35.474Z,24.70
2019-03-28T01:12:02.840Z,36.50
2019-03-28T01:14:30.314Z,30.20
2019-03-28T01:16:57.546Z,33.40
2019-03-28T01:19:24.786Z,31.13
2019-03-28T01:21:51.985Z,30.57
2019-03-28T01:24:19.197Z,34.20
2019-03-28T01:26:56.636Z,40.27
2019-03-28T01:29:15.380Z,36.37
2019-03-28T01:31:42.613Z,32.03
2019-03-28T01:34:10.170Z,39.53
2019-03-28T01:36:38.242Z,30.20
2019-03-28T01:39:05.703Z,38.00
2019-03-28T01:41:33.354Z,32.57
2019-03-28T01:44:00.585Z,37.53
2019-03-28T01:46:27.795Z,43.23
2019-03-28T01:48:55.319Z,36.47
2019-03-28T01:51:23.799Z,31.73
2019-03-28T01:53:51.033Z,32.90
2019-03-28T01:56:18.265Z,32.67
2019-03-28T01:58:45.498Z,36.40
2019-03-28T02:01:13.120Z,36.37
2019-03-28T02:03:40.667Z,34.57
2019-03-28T02:06:07.882Z,38.50
2019-03-28T02:08:35.481Z,36.93
2019-03-28T02:11:02.758Z,37.70
2019-03-28T02:13:29.996Z,36.80
2019-03-28T02:15:57.206Z,33.13
2019-03-28T02:18:24.421Z,31.90
2019-03-28T02:20:51.662Z,35.30
2019-03-28T02:23:19.187Z,33.77
2019-03-28T02:25:46.426Z,38.03
2019-03-28T02:28:13.643Z,33.93
2019-03-28T02:30:40.942Z,35.63
2019-03-28T02:33:08.230Z,40.23
2019-03-28T02:35:35.759Z,34.40
2019-03-28T02:38:03.034Z,35.23
2019-03-28T02:40:30.276Z,38.43
2019-03-28T02:42:57.492Z,36.70
2019-03-28T02:45:24.750Z,39.33
2019-03-28T02:47:52.000Z,38.20
2019-03-28T02:50:19.207Z,36.87
2019-03-28T02:52:47.462Z,38.60
2019-03-28T02:55:15.089Z,37.10
2019-03-28T02:57:43.869Z,35.70
2019-03-28T03:00:11.586Z,34.97
2019-03-28T03:02:38.834Z,34.60
2019-03-28T03:05:07.022Z,33.80
2019-03-28T03:07:34.285Z,30.77
2019-03-28T03:10:03.058Z,33.93
2019-03-28T03:12:30.267Z,36.83
2019-03-28T03:14:57.502Z,38.43
2019-03-28T03:17:24.749Z,43.40
2019-03-28T03:19:51.969Z,33.53
2019-03-28T03:22:19.195Z,31.87
2019-03-28T03:24:46.403Z,31.23
2019-03-28T03:27:13.642Z,31.53
2019-03-28T03:29:40.946Z,33.13
2019-03-28T03:32:08.507Z,30.67
2019-03-28T03:34:36.039Z,35.03
2019-03-28T03:37:04.007Z,33.90
2019-03-28T03:39:31.876Z,32.33
2019-03-28T03:41:59.432Z,35.73
2019-03-28T03:44:26.991Z,32.63
2019-03-28T03:46:54.570Z,31.53
2019-03-28T03:49:22.103Z,31.33
2019-03-28T03:51:49.315Z,29.27
2019-03-28T03:54:16.530Z,31.03
2019-03-28T03:56:43.767Z,33.97
2019-03-28T03:59:11.799Z,33.67
2019-03-28T04:01:39.589Z,33.97
2019-03-28T04:04:06.847Z,33.17
2019-03-28T04:06:34.406Z,30.77
2019-03-28T04:09:02.712Z,31.17
2019-03-28T04:11:30.286Z,32.13
2019-03-28T04:13:57.524Z,36.13
2019-03-28T04:16:24.751Z,32.47
2019-03-28T04:18:52.022Z,32.10
2019-03-28T04:21:19.250Z,32.70
2019-03-28T04:23:46.468Z,34.63
2019-03-28T04:26:13.709Z,30.47
2019-03-28T04:28:40.940Z,35.03
2019-03-28T04:31:08.451Z,36.40
2019-03-28T04:33:36.085Z,36.83
2019-03-28T04:36:04.390Z,34.50
2019-03-28T04:38:31.570Z,30.60
2019-03-28T04:40:59.098Z,37.57
2019-03-28T04:43:26.298Z,32.97
2019-03-28T04:45:53.809Z,35.23
2019-03-28T04:48:21.244Z,31.33
2019-03-28T04:50:48.482Z,31.00
2019-03-28T04:53:15.962Z,33.17
2019-03-28T04:55:43.622Z,30.37
2019-03-28T04:58:10.842Z,31.20
2019-03-28T05:00:38.053Z,31.83
2019-03-28T05:03:05.291Z,32.30
2019-03-28T05:05:32.842Z,30.93
2019-03-28T05:08:00.095Z,33.33
2019-03-28T05:10:27.638Z,33.60
2019-03-28T05:12:54.870Z,35.50
2019-03-28T05:15:22.110Z,31.70
2019-03-28T05:17:49.326Z,31.63
2019-03-28T05:20:16.593Z,33.30
2019-03-28T05:22:44.113Z,33.87
2019-03-28T05:25:11.670Z,31.80
2019-03-28T05:27:38.895Z,33.03
2019-03-28T05:30:09.374Z,33.87
2019-03-28T05:32:36.609Z,37.87
2019-03-28T05:35:05.275Z,34.30
2019-03-28T05:37:32.729Z,32.83
2019-03-28T05:40:00.317Z,35.03
2019-03-28T05:42:27.698Z,33.73
2019-03-28T05:44:54.914Z,32.03
2019-03-28T05:47:22.393Z,34.17
2019-03-28T05:49:49.910Z,33.80
2019-03-28T05:52:17.471Z,36.07
2019-03-28T05:54:44.719Z,28.80
2019-03-28T05:57:11.923Z,30.50
2019-03-28T05:59:39.194Z,33.77
2019-03-28T06:02:06.395Z,34.80
2019-03-28T06:04:34.360Z,35.83
2019-03-28T06:07:03.626Z,32.80
2019-03-28T06:09:30.874Z,42.87
2019-03-28T06:11:58.454Z,36.97
2019-03-28T06:14:25.666Z,35.60
2019-03-28T06:16:52.901Z,33.40
2019-03-28T06:19:20.133Z,32.00
2019-03-28T06:21:47.748Z,34.33
2019-03-28T06:24:15.428Z,34.63
2019-03-28T06:26:42.641Z,32.70
2019-03-28T06:29:22.873Z,33.37
2019-03-28T06:31:39.439Z,32.27
2019-03-28T06:34:06.994Z,33.87
2019-03-28T06:36:34.654Z,34.23
2019-03-28T06:39:02.618Z,31.40
2019-03-28T06:41:29.838Z,34.03
2019-03-28T06:43:57.087Z,30.93
2019-03-28T06:46:24.322Z,33.67
2019-03-28T06:48:51.530Z,34.77
2019-03-28T06:51:18.766Z,32.10
2019-03-28T06:53:46.333Z,37.50
2019-03-28T06:56:13.568Z,36.27
2019-03-28T06:58:40.782Z,34.67
2019-03-28T07:01:08.296Z,32.70
2019-03-28T07:03:35.529Z,36.10
2019-03-28T07:06:03.138Z,34.97
2019-03-28T07:08:30.662Z,34.93
2019-03-28T07:10:58.274Z,36.63
2019-03-28T07:13:26.703Z,33.80
2019-03-28T07:15:53.975Z,34.70
2019-03-28T07:18:21.211Z,34.70
2019-03-28T07:20:48.425Z,36.33
2019-03-28T07:23:15.662Z,35.83
2019-03-28T07:25:42.879Z,34.03
2019-03-28T07:28:10.123Z,35.70
2019-03-28T07:30:39.283Z,35.03
2019-03-28T07:33:06.566Z,34.40
2019-03-28T07:35:33.797Z,34.23
2019-03-28T07:38:01.018Z,34.23
2019-03-28T07:40:28.279Z,33.27
2019-03-28T07:42:55.687Z,32.77
2019-03-28T07:45:22.905Z,35.63
2019-03-28T07:47:50.156Z,33.90
2019-03-28T07:50:17.379Z,33.83
2019-03-28T07:52:44.778Z,33.70
2019-03-28T07:55:12.090Z,37.33
2019-03-28T07:57:39.317Z,39.70
2019-03-28T08:00:10.941Z,35.00
2019-03-28T08:02:38.369Z,41.87
2019-03-28T08:05:07.194Z,39.33
2019-03-28T08:07:44.331Z,38.63
2019-03-28T08:10:06.895Z,36.70
2019-03-28T08:12:34.478Z,36.80
2019-03-28T08:15:02.653Z,38.77
2019-03-28T08:17:29.873Z,37.57
2019-03-28T08:19:57.100Z,39.73
2019-03-28T08:22:24.747Z,51.03
2019-03-28T08:24:52.101Z,39.73
2019-03-28T08:27:19.342Z,38.63
2019-03-28T08:29:46.580Z,42.43
2019-03-28T08:32:15.429Z,37.37
2019-03-28T08:34:42.838Z,36.13
2019-03-28T08:37:10.434Z,37.13
2019-03-28T08:39:37.714Z,36.20
2019-03-28T08:42:05.259Z,41.20
2019-03-28T08:44:32.490Z,36.63
2019-03-28T08:47:06.067Z,34.23
2019-03-28T08:49:31.850Z,34.57
2019-03-28T08:51:59.398Z,38.47
2019-03-28T08:54:26.658Z,39.17
2019-03-28T08:56:53.894Z,37.53
2019-03-28T08:59:21.127Z,38.57
2019-03-28T09:01:48.745Z,36.40
2019-03-28T09:04:15.979Z,36.83
2019-03-28T09:06:43.507Z,36.47
2019-03-28T09:09:10.727Z,36.43
2019-03-28T09:11:37.973Z,38.97
2019-03-28T09:14:05.194Z,35.03
2019-03-28T09:16:32.454Z,38.40
2019-03-28T09:18:59.700Z,37.87
2019-03-28T09:21:26.913Z,47.60
2019-03-28T09:23:54.234Z,34.53
2019-03-28T09:26:21.425Z,34.70
2019-03-28T09:28:48.650Z,36.63
2019-03-28T09:31:20.272Z,36.03
2019-03-28T09:33:44.932Z,39.33
2019-03-28T09:36:12.468Z,43.33
2019-03-28T09:38:40.047Z,38.27
2019-03-28T09:41:07.588Z,38.37
2019-03-28T09:43:34.830Z,38.63
2019-03-28T09:46:03.146Z,41.73
2019-03-28T09:48:30.775Z,40.27
2019-03-28T09:50:58.014Z,41.83
2019-03-28T09:53:25.258Z,36.17
2019-03-28T09:55:52.471Z,42.80
2019-03-28T09:58:19.697Z,38.23
2019-03-28T10:01:01.612Z,43.23
2019-03-28T10:03:16.256Z,39.33
2019-03-28T10:05:43.516Z,37.17
2019-03-28T10:08:10.749Z,41.37
2019-03-28T10:10:38.290Z,44.53
2019-03-28T10:13:05.542Z,42.53
2019-03-28T10:15:32.762Z,46.57
2019-03-28T10:18:00.006Z,39.43
2019-03-28T10:20:27.501Z,42.03
2019-03-28T10:22:54.713Z,46.00
2019-03-28T10:25:21.959Z,43.53
2019-03-28T10:27:49.174Z,44.77
2019-03-28T10:30:16.676Z,42.53
2019-03-28T10:32:43.897Z,44.93
2019-03-28T10:35:12.951Z,44.17
2019-03-28T10:37:40.511Z,42.53
2019-03-28T10:40:08.113Z,48.43
2019-03-28T10:42:35.630Z,42.60
2019-03-28T10:45:03.210Z,43.20
2019-03-28T10:47:30.450Z,50.93
2019-03-28T10:49:57.664Z,46.47
2019-03-28T10:52:25.152Z,44.07
2019-03-28T10:54:52.703Z,41.57
2019-03-28T10:57:29.959Z,44.10
2019-03-28T10:59:49.222Z,47.53
2019-03-28T11:02:16.710Z,42.40
2019-03-28T11:04:43.953Z,40.10
2019-03-28T11:07:11.215Z,40.27
2019-03-28T11:09:38.774Z,45.33
2019-03-28T11:12:06.022Z,42.77
2019-03-28T11:14:33.582Z,45.93
2019-03-28T11:17:00.814Z,46.13
2019-03-28T11:19:28.412Z,43.70
2019-03-28T11:21:55.951Z,41.67
2019-03-28T11:24:23.195Z,40.43
2019-03-28T11:26:50.406Z,42.60
2019-03-28T11:29:17.910Z,46.27
2019-03-28T11:31:46.999Z,47.23
2019-03-28T11:34:14.746Z,43.93
2019-03-28T11:36:42.169Z,40.93
2019-03-28T11:39:09.478Z,43.30
2019-03-28T11:41:37.037Z,42.67
2019-03-28T11:44:05.411Z,36.83
2019-03-28T11:46:32.969Z,44.80
2019-03-28T11:49:00.301Z,39.20
2019-03-28T11:51:27.998Z,36.93
2019-03-28T11:53:55.327Z,28.60
2019-03-28T11:56:22.540Z,27.57
2019-03-28T11:58:49.787Z,30.40
2019-03-28T12:01:17.045Z,24.73
2019-03-28T12:03:44.272Z,27.90
2019-03-28T12:06:11.897Z,25.43
2019-03-28T12:08:39.471Z,22.07
2019-03-28T12:11:06.711Z,21.73
2019-03-28T12:13:44.216Z,22.00
2019-03-28T12:16:03.810Z,20.87
2019-03-28T12:18:31.054Z,18.73
2019-03-28T12:20:58.265Z,19.80
2019-03-28T12:23:25.478Z,22.17
2019-03-28T12:25:52.714Z,17.47
2019-03-28T12:28:19.941Z,20.77
2019-03-28T12:30:47.168Z,23.00
2019-03-28T12:33:14.436Z,25.03
2019-03-28T12:35:41.645Z,20.13
2019-03-28T12:38:08.861Z,23.97
2019-03-28T12:40:36.386Z,19.10
2019-03-28T12:43:03.633Z,22.60
2019-03-28T12:45:30.847Z,23.20
2019-03-28T12:47:58.066Z,25.43
2019-03-28T12:50:25.602Z,26.70
2019-03-28T12:52:53.162Z,26.93
2019-03-28T12:55:20.522Z,24.70
2019-03-28T12:57:48.653Z,25.03
2019-03-28T13:00:16.138Z,24.73
2019-03-28T13:02:43.370Z,24.13
2019-03-28T13:05:10.755Z,26.27
2019-03-28T13:07:38.310Z,26.93
2019-03-28T13:10:07.121Z,24.83
2019-03-28T13:12:34.653Z,24.77
2019-03-28T13:15:01.879Z,29.00
2019-03-28T13:17:29.480Z,26.60
2019-03-28T13:19:57.019Z,31.17
2019-03-28T13:22:24.224Z,30.53
2019-03-28T13:24:51.472Z,30.00
2019-03-28T13:27:18.682Z,28.63
2019-03-28T13:29:45.909Z,27.63
2019-03-28T13:32:13.130Z,27.93
2019-03-28T13:34:40.354Z,27.27
2019-03-28T13:37:07.883Z,31.93
2019-03-28T13:39:35.143Z,29.17
2019-03-28T13:42:02.363Z,26.67
2019-03-28T13:44:30.354Z,31.67
2019-03-28T13:46:58.447Z,30.30
2019-03-28T13:49:25.694Z,30.60
2019-03-28T13:51:52.943Z,31.90
2019-03-28T13:54:23.198Z,33.10
2019-03-28T13:56:49.151Z,33.37
2019-03-28T13:59:16.357Z,34.57
2019-03-28T14:01:43.573Z,36.70
2019-03-28T14:04:11.129Z,34.17
2019-03-28T14:06:38.693Z,36.33
2019-03-28T14:09:06.291Z,38.37
2019-03-28T14:11:33.530Z,29.80
2019-03-28T14:14:01.301Z,33.20
2019-03-28T14:16:28.823Z,29.00
2019-03-28T14:18:56.058Z,32.63
2019-03-28T14:21:23.261Z,29.77
2019-03-28T14:23:50.806Z,29.13
2019-03-28T14:26:18.009Z,32.73
2019-03-28T14:28:45.587Z,29.83
2019-03-28T14:31:12.809Z,30.07
2019-03-28T14:33:40.030Z,33.13
2019-03-28T14:36:07.319Z,29.07
2019-03-28T14:38:37.282Z,30.27
2019-03-28T14:41:03.499Z,34.57
2019-03-28T14:43:30.798Z,30.70
2019-03-28T14:45:58.318Z,29.37
2019-03-28T14:48:25.862Z,33.83
2019-03-28T14:50:53.228Z,27.33
2019-03-28T14:53:22.212Z,28.23
2019-03-28T14:55:50.225Z,28.93
2019-03-28T14:58:17.721Z,28.77
2019-03-28T15:00:47.019Z,28.40
2019-03-28T15:03:25.839Z,29.10
2019-03-28T15:05:43.766Z,29.83
2019-03-28T15:08:11.017Z,28.00
2019-03-28T15:10:38.587Z,31.03
2019-03-28T15:13:06.142Z,28.37
2019-03-28T15:15:33.712Z,32.03
2019-03-28T15:18:01.510Z,29.50
2019-03-28T15:20:29.026Z,29.63
2019-03-28T15:22:56.268Z,29.80
2019-03-28T15:25:23.469Z,30.83
2019-03-28T15:27:50.727Z,27.40
2019-03-28T15:30:18.314Z,27.93
2019-03-28T15:32:45.530Z,27.43
2019-03-28T15:35:12.778Z,25.60
2019-03-28T15:37:40.065Z,30.70
2019-03-28T15:40:07.550Z,25.93
2019-03-28T15:42:35.113Z,27.93
2019-03-28T15:45:02.666Z,27.57
2019-03-28T15:47:30.238Z,27.43
2019-03-28T15:49:57.782Z,26.60
2019-03-28T15:52:27.455Z,25.23
2019-03-28T15:54:53.964Z,29.90
2019-03-28T15:57:21.206Z,25.30
2019-03-28T15:59:48.420Z,24.40
2019-03-28T16:02:15.671Z,22.57
2019-03-28T16:04:42.878Z,30.77
2019-03-28T16:07:10.102Z,24.63
2019-03-28T16:09:37.335Z,22.20
2019-03-28T16:12:04.542Z,22.93
2019-03-28T16:14:32.033Z,22.03
2019-03-28T16:16:59.262Z,24.60
2019-03-28T16:19:26.552Z,26.40
2019-03-28T16:21:54.109Z,25.10
2019-03-28T16:24:21.340Z,24.77
2019-03-28T16:26:48.555Z,24.20
2019-03-28T16:29:16.056Z,23.57
2019-03-28T16:31:43.290Z,25.00
2019-03-28T16:34:10.879Z,23.13
2019-03-28T16:36:38.089Z,21.37
2019-03-28T16:39:05.878Z,20.40
2019-03-28T16:41:33.113Z,24.23
2019-03-28T16:44:00.327Z,24.47
2019-03-28T16:46:27.563Z,22.13
2019-03-28T16:48:54.773Z,25.80
2019-03-28T16:51:22.087Z,21.37
2019-03-28T16:53:49.304Z,29.03
2019-03-28T16:56:16.850Z,23.03
2019-03-28T16:58:44.092Z,24.93
2019-03-28T17:01:11.303Z,26.03
2019-03-28T17:03:38.537Z,26.60
2019-03-28T17:06:06.058Z,22.90
2019-03-28T17:08:33.278Z,26.30
2019-03-28T17:11:00.524Z,26.07
2019-03-28T17:13:27.729Z,25.57
2019-03-28T17:15:55.288Z,22.47
2019-03-28T17:18:22.498Z,24.87
2019-03-28T17:20:49.806Z,22.37
2019-03-28T17:23:17.430Z,22.83
2019-03-28T17:25:44.730Z,22.50
2019-03-28T17:28:11.942Z,23.10
2019-03-28T17:30:39.601Z,23.47
2019-03-28T17:33:06.815Z,23.07
2019-03-28T17:35:34.051Z,21.50
2019-03-28T17:38:01.556Z,24.37
2019-03-28T17:40:28.799Z,22.57
2019-03-28T17:42:56.036Z,22.33
2019-03-28T17:45:23.521Z,21.83
2019-03-28T17:47:50.739Z,22.70
2019-03-28T17:50:18.991Z,24.80
2019-03-28T17:52:46.597Z,23.53
2019-03-28T17:55:13.804Z,22.03
2019-03-28T17:57:41.303Z,21.10
2019-03-28T18:00:08.882Z,23.33
2019-03-28T18:02:36.117Z,20.43
2019-03-28T18:05:09.705Z,21.93
2019-03-28T18:07:35.570Z,21.63
2019-03-28T18:10:02.225Z,23.13
2019-03-28T18:12:29.428Z,24.07
2019-03-28T18:14:56.679Z,28.10
2019-03-28T18:17:23.869Z,24.57
2019-03-28T18:19:51.109Z,27.03
2019-03-28T18:22:18.325Z,24.60
2019-03-28T18:24:45.543Z,27.60
2019-03-28T18:27:15.083Z,22.50
2019-03-28T18:29:42.298Z,24.50
2019-03-28T18:32:09.559Z,29.63
2019-03-28T18:34:36.779Z,24.57
2019-03-28T18:37:04.014Z,26.53
2019-03-28T18:39:31.234Z,25.13
2019-03-28T18:41:58.791Z,22.40
2019-03-28T18:44:26.351Z,24.70
2019-03-28T18:46:53.807Z,28.90
2019-03-28T18:49:21.062Z,29.03
2019-03-28T18:51:48.520Z,27.67
2019-03-28T18:54:15.722Z,27.43
2019-03-28T18:56:43.210Z,29.07
2019-03-28T18:59:10.461Z,24.07
2019-03-28T19:01:37.670Z,27.33
2019-03-28T19:04:05.198Z,25.40
2019-03-28T19:06:32.390Z,29.37
2019-03-28T19:08:59.908Z,25.37
2019-03-28T19:11:27.445Z,31.57
2019-03-28T19:13:54.662Z,32.20
2019-03-28T19:16:22.015Z,34.70
2019-03-28T19:18:49.291Z,30.73
2019-03-28T19:21:16.506Z,28.13
2019-03-28T19:23:43.747Z,28.00
2019-03-28T19:26:11.317Z,32.13
2019-03-28T19:28:38.563Z,31.80
2019-03-28T19:31:05.807Z,26.83
2019-03-28T19:33:33.030Z,25.77
2019-03-28T19:36:01.561Z,30.53
2019-03-28T19:38:29.210Z,35.90
2019-03-28T19:40:56.714Z,29.30
2019-03-28T19:43:23.994Z,30.23
2019-03-28T19:45:51.209Z,29.63
2019-03-28T19:48:18.457Z,28.50
2019-03-28T19:50:45.671Z,32.23
2019-03-28T19:53:12.878Z,29.63
2019-03-28T19:55:40.427Z,30.87
2019-03-28T19:58:07.715Z,36.30
2019-03-28T20:00:35.234Z,33.90
2019-03-28T20:03:02.714Z,27.77
2019-03-28T20:05:29.966Z,31.60
2019-03-28T20:07:57.202Z,32.43
2019-03-28T20:10:24.764Z,33.07
2019-03-28T20:12:52.313Z,34.07
2019-03-28T20:15:19.551Z,35.30
2019-03-28T20:17:48.084Z,34.73
2019-03-28T20:20:15.494Z,33.33
2019-03-28T20:22:44.961Z,37.50
2019-03-28T20:25:12.042Z,34.87
2019-03-28T20:27:39.258Z,32.73
2019-03-28T20:30:07.370Z,34.70
2019-03-28T20:32:34.602Z,34.43
2019-03-28T20:35:01.844Z,32.93
2019-03-28T20:37:29.338Z,33.53
2019-03-28T20:39:56.622Z,32.97
2019-03-28T20:42:23.853Z,36.00
2019-03-28T20:44:51.075Z,36.37
2019-03-28T20:47:18.666Z,36.87
2019-03-28T20:49:46.776Z,35.30
2019-03-28T20:52:14.209Z,36.47
2019-03-28T20:54:41.443Z,37.30
2019-03-28T20:57:09.296Z,33.57
2019-03-28T20:59:37.278Z,38.73
2019-03-28T21:02:04.815Z,35.23
2019-03-28T21:04:32.179Z,39.90
2019-03-28T21:06:59.488Z,36.53
2019-03-28T21:09:26.726Z,41.03
2019-03-28T21:11:54.006Z,38.03
2019-03-28T21:14:22.322Z,38.33
2019-03-28T21:16:49.542Z,38.10
2019-03-28T21:19:17.109Z,33.20
2019-03-28T21:21:44.775Z,38.20
2019-03-28T21:24:11.963Z,43.60
2019-03-28T21:26:40.228Z,38.27
2019-03-28T21:29:08.170Z,34.90
2019-03-28T21:31:48.810Z,34.87
2019-03-28T21:34:04.390Z,39.53
2019-03-28T21:36:32.430Z,39.23
2019-03-28T21:38:59.885Z,40.37
2019-03-28T21:41:27.102Z,41.83
2019-03-28T21:43:54.658Z,39.10
2019-03-28T21:46:21.879Z,43.13
2019-03-28T21:48:49.123Z,40.70
2019-03-28T21:51:16.347Z,43.47
2019-03-28T21:53:43.850Z,46.43
2019-03-28T21:56:14.151Z,45.23
2019-03-28T21:58:40.051Z,40.93
2019-03-28T22:01:07.377Z,47.00
2019-03-28T22:03:34.635Z,47.93
2019-03-28T22:06:01.898Z,47.30
2019-03-28T22:08:29.408Z,47.97
2019-03-28T22:10:56.966Z,43.70
2019-03-28T22:13:24.525Z,45.80
2019-03-28T22:15:51.742Z,39.10
2019-03-28T22:18:18.958Z,39.80
2019-03-28T22:20:46.195Z,45.70
2019-03-28T22:23:13.802Z,45.67
2019-03-28T22:25:41.149Z,47.50
2019-03-28T22:28:08.442Z,44.27
2019-03-28T22:30:35.662Z,48.20
2019-03-28T22:33:02.907Z,46.63
2019-03-28T22:35:30.402Z,41.40
2019-03-28T22:37:57.613Z,44.00
2019-03-28T22:40:24.849Z,44.37
2019-03-28T22:42:52.056Z,43.13
2019-03-28T22:45:19.290Z,47.00
2019-03-28T22:47:46.766Z,45.60
2019-03-28T22:50:13.997Z,47.53
2019-03-28T22:52:41.477Z,46.33
2019-03-28T22:55:08.776Z,42.20
2019-03-28T22:57:36.057Z,47.43
2019-03-28T23:00:05.474Z,44.73
2019-03-28T23:02:32.702Z,46.47
2019-03-28T23:04:59.988Z,46.63
2019-03-28T23:07:27.206Z,48.77
2019-03-28T23:09:54.437Z,49.50
2019-03-28T23:12:22.029Z,47.37
2019-03-28T23:14:49.274Z,55.50
2019-03-28T23:17:16.847Z,50.23
2019-03-28T23:19:44.405Z,49.87
2019-03-28T23:22:11.964Z,48.00
2019-03-28T23:24:39.246Z,53.17
2019-03-28T23:27:06.496Z,52.20
2019-03-28T23:29:33.738Z,49.90
2019-03-28T23:32:01.583Z,44.33
2019-03-28T23:34:28.813Z,50.63
2019-03-28T23:36:56.046Z,49.07
2019-03-28T23:39:23.272Z,45.50
2019-03-28T23:41:50.794Z,45.17
2019-03-28T23:44:18.354Z,49.37
2019-03-28T23:46:45.594Z,52.00
2019-03-28T23:49:13.205Z,52.23
2019-03-28T23:51:41.121Z,51.67
2019-03-28T23:54:08.334Z,47.13
2019-03-28T23:56:36.846Z,45.93
2019-03-28T23:59:04.298Z,48.13
